sensor_id;sensor_type;location;lat;lon;timestamp;pressure;altitude;pressure_sealevel;temperature;humidity
69751;BME280;57335;52.288;6.056;2024-03-02T00:00:27;99909.22;;;7.78;99.26
69751;BME280;57335;52.288;6.056;2024-03-02T00:02:53;99889.16;;;7.79;99.46
69751;BME280;57335;52.288;6.056;2024-03-02T00:05:21;99899.53;;;7.86;99.96
69751;BME280;57335;52.288;6.056;2024-03-02T00:07:56;99892.31;;;7.88;100.00
69751;BME280;57335;52.288;6.056;2024-03-02T00:10:30;99883.06;;;7.92;98.01
69751;BME280;57335;52.288;6.056;2024-03-02T00:13:03;99877.41;;;7.95;98.69
69751;BME280;57335;52.288;6.056;2024-03-02T00:17:57;99873.47;;;8.11;96.63
69751;BME280;57335;52.288;6.056;2024-03-02T00:20:25;99879.47;;;8.11;97.18
69751;BME280;57335;52.288;6.056;2024-03-02T00:23:05;99866.69;;;8.03;97.97
69751;BME280;57335;52.288;6.056;2024-03-02T00:25:38;99852.69;;;7.97;97.98
69751;BME280;57335;52.288;6.056;2024-03-02T00:28:05;99866.88;;;8.08;97.12
69751;BME280;57335;52.288;6.056;2024-03-02T00:33:10;99876.28;;;8.09;97.12
69751;BME280;57335;52.288;6.056;2024-03-02T00:35:36;99862.84;;;8.06;97.00
69751;BME280;57335;52.288;6.056;2024-03-02T00:38:04;99863.13;;;7.97;97.65
69751;BME280;57335;52.288;6.056;2024-03-02T00:40:32;99866.69;;;8.03;97.05
69751;BME280;57335;52.288;6.056;2024-03-02T00:42:59;99847.84;;;8.01;97.44
69751;BME280;57335;52.288;6.056;2024-03-02T00:45:26;99850.06;;;7.97;97.65
69751;BME280;57335;52.288;6.056;2024-03-02T00:47:52;99859.53;;;7.98;96.76
69751;BME280;57335;52.288;6.056;2024-03-02T00:50:19;99866.88;;;8.08;97.22
69751;BME280;57335;52.288;6.056;2024-03-02T00:52:56;99863.25;;;8.09;97.21
69751;BME280;57335;52.288;6.056;2024-03-02T00:55:22;99860.59;;;8.16;97.03
69751;BME280;57335;52.288;6.056;2024-03-02T00:57:49;99868.19;;;8.17;97.86
69751;BME280;57335;52.288;6.056;2024-03-02T01:00:16;99861.53;;;8.22;97.41
69751;BME280;57335;52.288;6.056;2024-03-02T01:02:44;99863.41;;;8.14;96.61
69751;BME280;57335;52.288;6.056;2024-03-02T01:05:12;99877.16;;;8.28;96.39
69751;BME280;57335;52.288;6.056;2024-03-02T01:07:39;99870.09;;;8.29;96.38
69751;BME280;57335;52.288;6.056;2024-03-02T01:10:05;99873.69;;;8.34;96.38
69751;BME280;57335;52.288;6.056;2024-03-02T01:12:32;99871.28;;;8.33;95.33
69751;BME280;57335;52.288;6.056;2024-03-02T01:14:59;99874.06;;;8.38;95.30
69751;BME280;57335;52.288;6.056;2024-03-02T01:17:25;99868.41;;;8.41;95.14
69751;BME280;57335;52.288;6.056;2024-03-02T01:19:52;99884.25;;;8.46;95.30
69751;BME280;57335;52.288;6.056;2024-03-02T01:22:18;99887.56;;;8.53;95.04
69751;BME280;57335;52.288;6.056;2024-03-02T01:24:51;99885.16;;;8.52;95.32
69751;BME280;57335;52.288;6.056;2024-03-02T01:27:18;99870.38;;;8.46;95.21
69751;BME280;57335;52.288;6.056;2024-03-02T01:29:45;99898.19;;;8.58;94.61
69751;BME280;57335;52.288;6.056;2024-03-02T01:32:11;99892.59;;;8.55;94.16
69751;BME280;57335;52.288;6.056;2024-03-02T01:34:38;99900.13;;;8.63;94.32
69751;BME280;57335;52.288;6.056;2024-03-02T01:37:04;99908.34;;;8.67;94.72
69751;BME280;57335;52.288;6.056;2024-03-02T01:39:31;99903.91;;;8.67;94.16
69751;BME280;57335;52.288;6.056;2024-03-02T01:41:58;99907.56;;;8.66;94.33
69751;BME280;57335;52.288;6.056;2024-03-02T01:44:24;99912.19;;;8.64;93.85
69751;BME280;57335;52.288;6.056;2024-03-02T01:46:51;99927.59;;;8.72;94.43
69751;BME280;57335;52.288;6.056;2024-03-02T01:49:17;99942.44;;;8.72;94.54
69751;BME280;57335;52.288;6.056;2024-03-02T01:51:45;99940.19;;;8.75;93.85
69751;BME280;57335;52.288;6.056;2024-03-02T01:54:11;99946.09;;;8.89;92.17
69751;BME280;57335;52.288;6.056;2024-03-02T01:56:38;99953.06;;;8.95;91.14
69751;BME280;57335;52.288;6.056;2024-03-02T01:59:05;99946.19;;;8.83;91.92
69751;BME280;57335;52.288;6.056;2024-03-02T02:01:31;99952.78;;;8.85;91.80
69751;BME280;57335;52.288;6.056;2024-03-02T02:03:58;99945.81;;;8.79;92.51
69751;BME280;57335;52.288;6.056;2024-03-02T02:06:25;99954.00;;;8.83;93.76
69751;BME280;57335;52.288;6.056;2024-03-02T02:08:52;99948.00;;;8.82;93.90
69751;BME280;57335;52.288;6.056;2024-03-02T02:11:19;99943.41;;;8.77;94.30
69751;BME280;57335;52.288;6.056;2024-03-02T02:13:45;99950.44;;;8.77;94.79
69751;BME280;57335;52.288;6.056;2024-03-02T02:16:12;99940.41;;;8.74;95.28
69751;BME280;57335;52.288;6.056;2024-03-02T02:18:38;99930.25;;;8.66;97.51
69751;BME280;57335;52.288;6.056;2024-03-02T02:21:05;99929.66;;;8.64;97.42
69751;BME280;57335;52.288;6.056;2024-03-02T02:23:31;99918.91;;;8.53;99.60
69751;BME280;57335;52.288;6.056;2024-03-02T02:25:58;99927.78;;;8.52;98.66
69751;BME280;57335;52.288;6.056;2024-03-02T02:28:24;99898.13;;;8.40;100.00
69751;BME280;57335;52.288;6.056;2024-03-02T02:30:51;99886.47;;;8.43;100.00
69751;BME280;57335;52.288;6.056;2024-03-02T02:33:17;99901.00;;;8.32;100.00
69751;BME280;57335;52.288;6.056;2024-03-02T02:35:44;99893.59;;;8.29;100.00
69751;BME280;57335;52.288;6.056;2024-03-02T02:38:10;99900.25;;;8.25;100.00
69751;BME280;57335;52.288;6.056;2024-03-02T02:40:37;99884.94;;;8.10;100.00
69751;BME280;57335;52.288;6.056;2024-03-02T02:43:03;99898.13;;;8.15;100.00
69751;BME280;57335;52.288;6.056;2024-03-02T02:45:30;99908.75;;;8.20;100.00
69751;BME280;57335;52.288;6.056;2024-03-02T02:47:57;99908.34;;;8.16;100.00
69751;BME280;57335;52.288;6.056;2024-03-02T02:50:23;99897.75;;;8.11;100.00
69751;BME280;57335;52.288;6.056;2024-03-02T02:52:50;99898.34;;;8.13;100.00
69751;BME280;57335;52.288;6.056;2024-03-02T02:55:16;99904.19;;;8.09;100.00
69751;BME280;57335;52.288;6.056;2024-03-02T02:57:43;99913.63;;;8.10;100.00
69751;BME280;57335;52.288;6.056;2024-03-02T03:00:14;99904.84;;;8.04;100.00
69751;BME280;57335;52.288;6.056;2024-03-02T03:02:45;99902.22;;;8.04;100.00
69751;BME280;57335;52.288;6.056;2024-03-02T03:05:13;99917.03;;;8.10;100.00
69751;BME280;57335;52.288;6.056;2024-03-02T03:07:41;99910.66;;;8.06;100.00
69751;BME280;57335;52.288;6.056;2024-03-02T03:10:08;99906.44;;;8.05;100.00
69751;BME280;57335;52.288;6.056;2024-03-02T03:12:35;99921.66;;;8.08;100.00
69751;BME280;57335;52.288;6.056;2024-03-02T03:15:03;99912.44;;;8.06;100.00
69751;BME280;57335;52.288;6.056;2024-03-02T03:17:31;99920.91;;;8.01;100.00
69751;BME280;57335;52.288;6.056;2024-03-02T03:19:58;99926.13;;;8.01;100.00
69751;BME280;57335;52.288;6.056;2024-03-02T03:22:24;99921.69;;;8.02;100.00
69751;BME280;57335;52.288;6.056;2024-03-02T03:24:51;99910.69;;;7.99;100.00
69751;BME280;57335;52.288;6.056;2024-03-02T03:27:18;99910.31;;;7.96;100.00
69751;BME280;57335;52.288;6.056;2024-03-02T03:29:46;99917.50;;;8.01;100.00
69751;BME280;57335;52.288;6.056;2024-03-02T03:32:12;99915.34;;;7.91;100.00
69751;BME280;57335;52.288;6.056;2024-03-02T03:34:39;99922.59;;;7.89;100.00
69751;BME280;57335;52.288;6.056;2024-03-02T03:37:06;99928.59;;;7.89;100.00
69751;BME280;57335;52.288;6.056;2024-03-02T03:39:34;99925.88;;;7.77;100.00
69751;BME280;57335;52.288;6.056;2024-03-02T03:42:00;99937.72;;;7.80;100.00
69751;BME280;57335;52.288;6.056;2024-03-02T03:44:27;99928.66;;;7.83;100.00
69751;BME280;57335;52.288;6.056;2024-03-02T03:46:53;99922.91;;;7.74;100.00
69751;BME280;57335;52.288;6.056;2024-03-02T03:49:20;99937.72;;;7.73;100.00
69751;BME280;57335;52.288;6.056;2024-03-02T03:51:47;99937.97;;;7.72;100.00
69751;BME280;57335;52.288;6.056;2024-03-02T03:54:13;99944.59;;;7.68;100.00
69751;BME280;57335;52.288;6.056;2024-03-02T03:56:40;99943.78;;;7.67;100.00
69751;BME280;57335;52.288;6.056;2024-03-02T03:59:06;99957.25;;;7.64;100.00
69751;BME280;57335;52.288;6.056;2024-03-02T04:01:33;99968.47;;;7.65;100.00
69751;BME280;57335;52.288;6.056;2024-03-02T04:04:00;99975.50;;;7.64;100.00
69751;BME280;57335;52.288;6.056;2024-03-02T04:06:28;99969.09;;;7.60;100.00
69751;BME280;57335;52.288;6.056;2024-03-02T04:08:55;99974.53;;;7.58;100.00
69751;BME280;57335;52.288;6.056;2024-03-02T04:11:21;99968.09;;;7.61;100.00
69751;BME280;57335;52.288;6.056;2024-03-02T04:13:48;99978.31;;;7.63;100.00
69751;BME280;57335;52.288;6.056;2024-03-02T04:16:14;99964.72;;;7.54;100.00
69751;BME280;57335;52.288;6.056;2024-03-02T04:18:41;99973.72;;;7.58;100.00
69751;BME280;57335;52.288;6.056;2024-03-02T04:21:08;99953.69;;;7.52;100.00
69751;BME280;57335;52.288;6.056;2024-03-02T04:23:34;99964.72;;;7.54;100.00
69751;BME280;57335;52.288;6.056;2024-03-02T04:26:01;99971.72;;;7.53;100.00
69751;BME280;57335;52.288;6.056;2024-03-02T04:28:28;99969.34;;;7.52;100.00
69751;BME280;57335;52.288;6.056;2024-03-02T04:30:54;99972.94;;;7.51;100.00
69751;BME280;57335;52.288;6.056;2024-03-02T04:33:21;99985.38;;;7.49;100.00
69751;BME280;57335;52.288;6.056;2024-03-02T04:35:47;99996.25;;;7.46;100.00
69751;BME280;57335;52.288;6.056;2024-03-02T04:38:14;99990.63;;;7.35;100.00
69751;BME280;57335;52.288;6.056;2024-03-02T04:40:40;99973.22;;;7.29;100.00
69751;BME280;57335;52.288;6.056;2024-03-02T04:43:07;99987.28;;;7.28;100.00
69751;BME280;57335;52.288;6.056;2024-03-02T04:45:38;99980.47;;;7.21;100.00
69751;BME280;57335;52.288;6.056;2024-03-02T04:48:05;99999.34;;;7.16;100.00
69751;BME280;57335;52.288;6.056;2024-03-02T04:50:31;99977.09;;;7.07;100.00
69751;BME280;57335;52.288;6.056;2024-03-02T04:52:58;99997.31;;;7.11;100.00
69751;BME280;57335;52.288;6.056;2024-03-02T04:55:24;99988.72;;;7.04;100.00
69751;BME280;57335;52.288;6.056;2024-03-02T04:57:53;100002.94;;;7.08;100.00
69751;BME280;57335;52.288;6.056;2024-03-02T05:00:23;100003.97;;;7.01;100.00
69751;BME280;57335;52.288;6.056;2024-03-02T05:02:50;100008.38;;;7.00;100.00
69751;BME280;57335;52.288;6.056;2024-03-02T05:05:17;100008.38;;;6.93;100.00
69751;BME280;57335;52.288;6.056;2024-03-02T05:07:44;100010.38;;;6.91;100.00
69751;BME280;57335;52.288;6.056;2024-03-02T05:10:11;100021.38;;;6.93;100.00
69751;BME280;57335;52.288;6.056;2024-03-02T05:12:41;100012.78;;;6.86;100.00
69751;BME280;57335;52.288;6.056;2024-03-02T05:15:13;100024.41;;;6.90;100.00
69751;BME280;57335;52.288;6.056;2024-03-02T05:17:41;100028.81;;;6.83;100.00
69751;BME280;57335;52.288;6.056;2024-03-02T05:20:10;100029.81;;;6.89;100.00
69751;BME280;57335;52.288;6.056;2024-03-02T05:22:37;100020.81;;;6.78;100.00
69751;BME280;57335;52.288;6.056;2024-03-02T05:25:05;100021.00;;;6.76;100.00
69751;BME280;57335;52.288;6.056;2024-03-02T05:27:32;100030.81;;;6.81;100.00
69751;BME280;57335;52.288;6.056;2024-03-02T05:30:00;100031.84;;;6.80;100.00
69751;BME280;57335;52.288;6.056;2024-03-02T05:32:27;100022.00;;;6.75;100.00
69751;BME280;57335;52.288;6.056;2024-03-02T05:34:53;100014.38;;;6.67;100.00
69751;BME280;57335;52.288;6.056;2024-03-02T05:37:20;100031.22;;;6.71;100.00
69751;BME280;57335;52.288;6.056;2024-03-02T05:39:46;100032.00;;;6.65;100.00
69751;BME280;57335;52.288;6.056;2024-03-02T05:42:13;100040.84;;;6.57;100.00
69751;BME280;57335;52.288;6.056;2024-03-02T05:44:39;100032.81;;;6.46;100.00
69751;BME280;57335;52.288;6.056;2024-03-02T05:47:06;100029.81;;;6.42;100.00
69751;BME280;57335;52.288;6.056;2024-03-02T05:49:35;100031.41;;;6.43;100.00
69751;BME280;57335;52.288;6.056;2024-03-02T05:52:02;100027.22;;;6.35;100.00
69751;BME280;57335;52.288;6.056;2024-03-02T05:54:29;100025.59;;;6.28;100.00
69751;BME280;57335;52.288;6.056;2024-03-02T05:56:56;100033.16;;;6.29;100.00
69751;BME280;57335;52.288;6.056;2024-03-02T05:59:22;100040.78;;;6.24;100.00
69751;BME280;57335;52.288;6.056;2024-03-02T06:01:49;100037.56;;;6.15;100.00
69751;BME280;57335;52.288;6.056;2024-03-02T06:04:18;100040.94;;;6.09;100.00
69751;BME280;57335;52.288;6.056;2024-03-02T06:06:44;100052.34;;;6.15;100.00
69751;BME280;57335;52.288;6.056;2024-03-02T06:09:11;100052.34;;;6.08;100.00
69751;BME280;57335;52.288;6.056;2024-03-02T06:11:40;100053.75;;;6.04;100.00
69751;BME280;57335;52.288;6.056;2024-03-02T06:14:08;100046.72;;;5.98;100.00
69751;BME280;57335;52.288;6.056;2024-03-02T06:16:35;100056.31;;;5.97;100.00
69751;BME280;57335;52.288;6.056;2024-03-02T06:19:01;100050.25;;;5.90;100.00
69751;BME280;57335;52.288;6.056;2024-03-02T06:21:29;100060.84;;;5.89;100.00
69751;BME280;57335;52.288;6.056;2024-03-02T06:23:56;100073.84;;;5.89;100.00
69751;BME280;57335;52.288;6.056;2024-03-02T06:26:23;100070.81;;;5.78;100.00
69751;BME280;57335;52.288;6.056;2024-03-02T06:28:51;100058.97;;;5.69;100.00
69751;BME280;57335;52.288;6.056;2024-03-02T06:31:18;100067.94;;;5.67;100.00
69751;BME280;57335;52.288;6.056;2024-03-02T06:33:44;100078.16;;;5.68;100.00
69751;BME280;57335;52.288;6.056;2024-03-02T06:36:11;100080.56;;;5.70;100.00
69751;BME280;57335;52.288;6.056;2024-03-02T06:38:38;100071.75;;;5.71;100.00
69751;BME280;57335;52.288;6.056;2024-03-02T06:41:09;100079.19;;;5.74;100.00
69751;BME280;57335;52.288;6.056;2024-03-02T06:43:35;100067.75;;;5.68;100.00
69751;BME280;57335;52.288;6.056;2024-03-02T06:46:02;100083.19;;;5.76;100.00
69751;BME280;57335;52.288;6.056;2024-03-02T06:48:29;100089.00;;;5.78;100.00
69751;BME280;57335;52.288;6.056;2024-03-02T06:50:56;100078.59;;;5.72;100.00
69751;BME280;57335;52.288;6.056;2024-03-02T06:53:24;100081.44;;;5.84;100.00
69751;BME280;57335;52.288;6.056;2024-03-02T06:55:51;100086.34;;;6.00;100.00
69751;BME280;57335;52.288;6.056;2024-03-02T06:58:18;100084.41;;;6.29;100.00
69751;BME280;57335;52.288;6.056;2024-03-02T07:00:44;100094.09;;;6.48;100.00
69751;BME280;57335;52.288;6.056;2024-03-02T07:03:11;100081.47;;;6.58;100.00
69751;BME280;57335;52.288;6.056;2024-03-02T07:05:39;100090.13;;;6.92;100.00
69751;BME280;57335;52.288;6.056;2024-03-02T07:08:05;100080.91;;;7.16;100.00
69751;BME280;57335;52.288;6.056;2024-03-02T07:10:32;100091.88;;;7.52;100.00
69751;BME280;57335;52.288;6.056;2024-03-02T07:12:59;100082.16;;;7.79;100.00
69751;BME280;57335;52.288;6.056;2024-03-02T07:15:26;100101.31;;;8.11;100.00
69751;BME280;57335;52.288;6.056;2024-03-02T07:18:31;100108.84;;;8.33;100.00
69751;BME280;57335;52.288;6.056;2024-03-02T07:20:57;100094.09;;;8.52;100.00
69751;BME280;57335;52.288;6.056;2024-03-02T07:23:25;100100.59;;;8.74;100.00
69751;BME280;57335;52.288;6.056;2024-03-02T07:25:53;100105.94;;;8.86;100.00
69751;BME280;57335;52.288;6.056;2024-03-02T07:28:26;100108.00;;;9.03;99.53
69751;BME280;57335;52.288;6.056;2024-03-02T07:31:03;100105.59;;;8.76;100.00
69751;BME280;57335;52.288;6.056;2024-03-02T07:33:31;100124.59;;;8.58;100.00
69751;BME280;57335;52.288;6.056;2024-03-02T07:35:58;100118.56;;;8.57;100.00
69751;BME280;57335;52.288;6.056;2024-03-02T07:38:31;100127.25;;;8.83;100.00
69751;BME280;57335;52.288;6.056;2024-03-02T07:40:58;100133.88;;;9.11;100.00
69751;BME280;57335;52.288;6.056;2024-03-02T07:43:25;100128.91;;;9.28;98.05
69751;BME280;57335;52.288;6.056;2024-03-02T07:45:52;100129.53;;;9.48;97.25
69751;BME280;57335;52.288;6.056;2024-03-02T07:48:19;100124.53;;;9.84;96.90
69751;BME280;57335;52.288;6.056;2024-03-02T07:50:45;100139.19;;;10.22;92.41
69751;BME280;57335;52.288;6.056;2024-03-02T07:53:12;100133.47;;;10.62;92.09
69751;BME280;57335;52.288;6.056;2024-03-02T07:55:39;100133.78;;;10.95;89.31
69751;BME280;57335;52.288;6.056;2024-03-02T07:58:06;100135.97;;;11.34;87.32
69751;BME280;57335;52.288;6.056;2024-03-02T08:00:32;100139.03;;;11.54;85.21
69751;BME280;57335;52.288;6.056;2024-03-02T08:03:00;100158.66;;;11.75;83.79
69751;BME280;57335;52.288;6.056;2024-03-02T08:05:27;100147.38;;;11.75;83.12
69751;BME280;57335;52.288;6.056;2024-03-02T08:07:53;100161.28;;;11.99;83.18
69751;BME280;57335;52.288;6.056;2024-03-02T08:10:20;100154.88;;;12.07;81.73
69751;BME280;57335;52.288;6.056;2024-03-02T08:12:47;100162.63;;;12.42;80.93
69751;BME280;57335;52.288;6.056;2024-03-02T08:15:13;100163.94;;;12.56;79.23
69751;BME280;57335;52.288;6.056;2024-03-02T08:17:40;100160.28;;;12.57;76.71
69751;BME280;57335;52.288;6.056;2024-03-02T08:20:17;100158.63;;;12.68;76.68
69751;BME280;57335;52.288;6.056;2024-03-02T08:22:47;100153.88;;;12.82;76.25
69751;BME280;57335;52.288;6.056;2024-03-02T08:25:22;100156.59;;;12.87;75.25
69751;BME280;57335;52.288;6.056;2024-03-02T08:27:49;100149.41;;;13.16;77.07
69751;BME280;57335;52.288;6.056;2024-03-02T08:30:16;100150.88;;;13.41;73.54
69751;BME280;57335;52.288;6.056;2024-03-02T08:32:42;100139.56;;;13.63;73.26
69751;BME280;57335;52.288;6.056;2024-03-02T08:35:09;100139.69;;;13.73;71.22
69751;BME280;57335;52.288;6.056;2024-03-02T08:37:38;100136.53;;;13.93;69.92
69751;BME280;57335;52.288;6.056;2024-03-02T08:40:07;100144.28;;;14.00;69.92
69751;BME280;57335;52.288;6.056;2024-03-02T08:42:33;100145.72;;;14.12;68.90
69751;BME280;57335;52.288;6.056;2024-03-02T08:45:00;100140.09;;;14.04;66.70
69751;BME280;57335;52.288;6.056;2024-03-02T08:47:27;100142.06;;;14.13;66.70
69751;BME280;57335;52.288;6.056;2024-03-02T08:49:54;100144.34;;;14.32;66.08
69751;BME280;57335;52.288;6.056;2024-03-02T08:52:20;100144.66;;;14.35;64.88
69751;BME280;57335;52.288;6.056;2024-03-02T08:54:47;100151.28;;;14.38;66.30
69751;BME280;57335;52.288;6.056;2024-03-02T08:57:13;100152.47;;;14.52;66.68
69751;BME280;57335;52.288;6.056;2024-03-02T08:59:40;100153.34;;;14.58;62.91
69751;BME280;57335;52.288;6.056;2024-03-02T09:02:06;100153.78;;;14.77;63.93
69751;BME280;57335;52.288;6.056;2024-03-02T09:04:33;100152.69;;;14.73;63.21
69751;BME280;57335;52.288;6.056;2024-03-02T09:07:01;100148.22;;;14.73;64.37
69751;BME280;57335;52.288;6.056;2024-03-02T09:09:28;100159.50;;;14.96;65.68
69751;BME280;57335;52.288;6.056;2024-03-02T09:11:54;100157.00;;;15.16;60.94
69751;BME280;57335;52.288;6.056;2024-03-02T09:14:21;100152.44;;;15.07;62.08
69751;BME280;57335;52.288;6.056;2024-03-02T09:16:48;100165.41;;;14.81;63.65
69751;BME280;57335;52.288;6.056;2024-03-02T09:19:14;100160.72;;;14.56;61.59
69751;BME280;57335;52.288;6.056;2024-03-02T09:21:42;100160.72;;;14.56;60.26
69751;BME280;57335;52.288;6.056;2024-03-02T09:24:08;100163.16;;;14.41;60.43
69751;BME280;57335;52.288;6.056;2024-03-02T09:26:36;100149.34;;;14.06;63.95
69751;BME280;57335;52.288;6.056;2024-03-02T09:29:03;100159.56;;;14.25;63.20
69751;BME280;57335;52.288;6.056;2024-03-02T09:31:29;100163.72;;;14.21;62.27
69751;BME280;57335;52.288;6.056;2024-03-02T09:33:56;100152.16;;;13.77;62.75
69751;BME280;57335;52.288;6.056;2024-03-02T09:36:22;100162.28;;;14.08;63.22
69751;BME280;57335;52.288;6.056;2024-03-02T09:38:49;100137.59;;;13.92;62.13
69751;BME280;57335;52.288;6.056;2024-03-02T09:41:16;100145.41;;;13.87;62.45
69751;BME280;57335;52.288;6.056;2024-03-02T09:43:43;100164.47;;;13.94;63.65
69751;BME280;57335;52.288;6.056;2024-03-02T09:46:10;100158.88;;;13.68;62.89
69751;BME280;57335;52.288;6.056;2024-03-02T09:48:37;100165.66;;;13.64;62.93
69751;BME280;57335;52.288;6.056;2024-03-02T09:51:04;100172.72;;;13.42;66.26
69751;BME280;57335;52.288;6.056;2024-03-02T09:53:32;100166.75;;;13.29;65.61
69751;BME280;57335;52.288;6.056;2024-03-02T09:55:59;100161.69;;;13.11;65.87
69751;BME280;57335;52.288;6.056;2024-03-02T09:58:26;100166.50;;;13.14;66.22
69751;BME280;57335;52.288;6.056;2024-03-02T10:00:53;100160.00;;;13.05;66.95
69751;BME280;57335;52.288;6.056;2024-03-02T10:03:19;100152.84;;;13.00;65.83
69751;BME280;57335;52.288;6.056;2024-03-02T10:05:47;100157.78;;;12.80;66.36
69751;BME280;57335;52.288;6.056;2024-03-02T10:08:13;100165.34;;;12.76;66.49
69751;BME280;57335;52.288;6.056;2024-03-02T10:10:41;100169.56;;;12.77;66.52
69751;BME280;57335;52.288;6.056;2024-03-02T10:13:10;100167.75;;;12.49;66.41
69751;BME280;57335;52.288;6.056;2024-03-02T10:15:38;100154.38;;;12.50;67.88
69751;BME280;57335;52.288;6.056;2024-03-02T10:18:12;100164.97;;;12.55;68.50
69751;BME280;57335;52.288;6.056;2024-03-02T10:20:40;100156.47;;;12.36;70.81
69751;BME280;57335;52.288;6.056;2024-03-02T10:23:11;100161.66;;;12.31;70.12
69751;BME280;57335;52.288;6.056;2024-03-02T10:25:39;100169.59;;;12.36;71.06
69751;BME280;57335;52.288;6.056;2024-03-02T10:28:19;100171.94;;;12.33;71.23
69751;BME280;57335;52.288;6.056;2024-03-02T10:30:48;100159.25;;;12.30;69.26
69751;BME280;57335;52.288;6.056;2024-03-02T10:33:17;100158.88;;;12.38;70.57
69751;BME280;57335;52.288;6.056;2024-03-02T10:35:43;100150.25;;;12.26;71.25
69751;BME280;57335;52.288;6.056;2024-03-02T10:38:11;100149.22;;;12.27;69.27
69751;BME280;57335;52.288;6.056;2024-03-02T10:40:38;100155.38;;;12.21;70.56
69751;BME280;57335;52.288;6.056;2024-03-02T10:43:04;100157.69;;;12.17;68.72
69751;BME280;57335;52.288;6.056;2024-03-02T10:45:32;100152.75;;;12.21;70.71
69751;BME280;57335;52.288;6.056;2024-03-02T10:48:02;100145.69;;;12.21;70.39
69751;BME280;57335;52.288;6.056;2024-03-02T10:50:29;100157.34;;;12.25;68.27
69751;BME280;57335;52.288;6.056;2024-03-02T10:52:56;100153.47;;;12.16;71.85
69751;BME280;57335;52.288;6.056;2024-03-02T10:55:22;100156.31;;;12.14;72.37
69751;BME280;57335;52.288;6.056;2024-03-02T10:57:50;100161.47;;;12.21;70.85
69751;BME280;57335;52.288;6.056;2024-03-02T11:00:18;100148.06;;;12.23;71.36
69751;BME280;57335;52.288;6.056;2024-03-02T11:02:54;100144.22;;;12.42;68.07
69751;BME280;57335;52.288;6.056;2024-03-02T11:05:36;100145.72;;;12.38;71.31
69751;BME280;57335;52.288;6.056;2024-03-02T11:08:11;100138.91;;;12.37;73.12
69751;BME280;57335;52.288;6.056;2024-03-02T11:13:14;100144.09;;;12.49;70.01
69751;BME280;57335;52.288;6.056;2024-03-02T11:15:43;100143.25;;;12.60;68.13
69751;BME280;57335;52.288;6.056;2024-03-02T11:18:11;100146.19;;;12.64;68.31
69751;BME280;57335;52.288;6.056;2024-03-02T11:20:39;100143.41;;;12.53;68.42
69751;BME280;57335;52.288;6.056;2024-03-02T11:23:08;100132.53;;;12.33;67.78
69751;BME280;57335;52.288;6.056;2024-03-02T11:25:35;100147.34;;;12.39;69.81
69751;BME280;57335;52.288;6.056;2024-03-02T11:28:06;100143.22;;;12.43;70.98
69751;BME280;57335;52.288;6.056;2024-03-02T11:33:05;100141.66;;;12.59;68.38
69751;BME280;57335;52.288;6.056;2024-03-02T11:35:41;100128.41;;;12.54;70.43
69751;BME280;57335;52.288;6.056;2024-03-02T11:38:15;100133.44;;;12.55;69.66
69751;BME280;57335;52.288;6.056;2024-03-02T11:40:42;100132.66;;;12.55;66.10
69751;BME280;57335;52.288;6.056;2024-03-02T11:43:09;100136.66;;;12.29;71.43
69751;BME280;57335;52.288;6.056;2024-03-02T11:45:36;100135.94;;;12.33;69.80
69751;BME280;57335;52.288;6.056;2024-03-02T11:48:08;100130.31;;;12.42;68.50
69751;BME280;57335;52.288;6.056;2024-03-02T11:50:46;100118.69;;;12.54;69.68
69751;BME280;57335;52.288;6.056;2024-03-02T11:53:13;100119.69;;;12.65;68.18
69751;BME280;57335;52.288;6.056;2024-03-02T11:55:40;100125.91;;;12.76;69.13
69751;BME280;57335;52.288;6.056;2024-03-02T11:58:07;100121.13;;;12.73;71.65
69751;BME280;57335;52.288;6.056;2024-03-02T12:00:34;100121.28;;;12.83;70.17
69751;BME280;57335;52.288;6.056;2024-03-02T12:03:04;100119.84;;;12.75;71.07
69751;BME280;57335;52.288;6.056;2024-03-02T12:05:31;100110.34;;;12.74;67.99
69751;BME280;57335;52.288;6.056;2024-03-02T12:07:59;100118.72;;;12.71;69.25
69751;BME280;57335;52.288;6.056;2024-03-02T12:10:26;100102.63;;;12.68;69.24
69751;BME280;57335;52.288;6.056;2024-03-02T12:13:01;100104.53;;;12.55;69.93
69751;BME280;57335;52.288;6.056;2024-03-02T12:15:30;100101.00;;;12.50;71.95
69751;BME280;57335;52.288;6.056;2024-03-02T12:17:58;100093.91;;;12.50;74.28
69751;BME280;57335;52.288;6.056;2024-03-02T12:20:26;100092.06;;;12.34;70.24
69751;BME280;57335;52.288;6.056;2024-03-02T12:22:54;100085.91;;;12.28;72.97
69751;BME280;57335;52.288;6.056;2024-03-02T12:25:22;100090.16;;;12.29;73.78
69751;BME280;57335;52.288;6.056;2024-03-02T12:27:50;100089.16;;;12.18;72.83
69751;BME280;57335;52.288;6.056;2024-03-02T12:30:18;100075.19;;;12.01;75.34
69751;BME280;57335;52.288;6.056;2024-03-02T12:32:46;100086.28;;;11.91;73.68
69751;BME280;57335;52.288;6.056;2024-03-02T12:35:14;100087.84;;;12.04;74.64
69751;BME280;57335;52.288;6.056;2024-03-02T12:37:48;100070.94;;;12.00;73.16
69751;BME280;57335;52.288;6.056;2024-03-02T12:40:16;100074.59;;;12.11;74.52
69751;BME280;57335;52.288;6.056;2024-03-02T12:42:46;100080.31;;;12.25;72.56
69751;BME280;57335;52.288;6.056;2024-03-02T12:45:13;100092.41;;;12.37;71.12
69751;BME280;57335;52.288;6.056;2024-03-02T12:47:41;100086.66;;;12.41;70.83
69751;BME280;57335;52.288;6.056;2024-03-02T12:50:09;100073.66;;;12.34;75.74
69751;BME280;57335;52.288;6.056;2024-03-02T12:52:36;100082.94;;;12.25;75.29
69751;BME280;57335;52.288;6.056;2024-03-02T12:55:06;100075.19;;;12.47;73.27
69751;BME280;57335;52.288;6.056;2024-03-02T12:57:33;100080.66;;;12.57;72.45
69751;BME280;57335;52.288;6.056;2024-03-02T13:00:05;100070.59;;;12.54;73.27
69751;BME280;57335;52.288;6.056;2024-03-02T13:02:40;100071.19;;;12.27;73.31
69751;BME280;57335;52.288;6.056;2024-03-02T13:05:08;100065.13;;;11.98;71.87
69751;BME280;57335;52.288;6.056;2024-03-02T13:07:38;100079.28;;;12.09;74.59